Time;durP1;ratioP1;P1;durP2;ratioP2;P2;SDS_P1;SDS_P2;PMS_P1;PMS_P2;Temp;Humidity;BMP_temperature;BMP_pressure;BME280_temperature;BME280_humidity;BME280_pressure;Samples;Min_cycle;Max_cycle;Signal;HPM_P1;HPM_P2
2023/03/06 16:53:28;;;;;;;13.98;7.30;;;5.50;99.90;;;;;;5108703;27;20334;-72
2023/03/06 16:55:54;;;;;;;15.25;7.78;;;5.30;99.90;;;;;;5107494;28;20062;-70
2023/03/06 16:58:20;;;;;;;15.40;8.13;;;5.40;99.90;;;;;;5107961;28;20020;-65
2023/03/06 17:00:45;;;;;;;13.90;6.97;;;5.50;99.90;;;;;;5093432;28;20029;-67
2023/03/06 17:03:11;;;;;;;14.93;7.63;;;5.50;99.90;;;;;;5088542;28;20024;-67
2023/03/06 17:05:37;;;;;;;12.55;6.38;;;5.60;99.90;;;;;;5087564;28;20107;-70
2023/03/06 17:08:03;;;;;;;12.93;7.00;;;5.60;99.90;;;;;;5090160;28;20329;-68
2023/03/06 17:10:29;;;;;;;12.55;7.07;;;5.70;99.90;;;;;;5089302;28;20036;-69
2023/03/06 17:12:55;;;;;;;16.17;8.18;;;5.70;99.90;;;;;;5088854;28;20075;-66
2023/03/06 17:15:21;;;;;;;19.15;9.35;;;5.80;99.90;;;;;;5090809;28;20019;-68
2023/03/06 17:17:47;;;;;;;15.73;7.63;;;5.80;99.90;;;;;;5087460;28;20024;-73
2023/03/06 17:20:13;;;;;;;18.73;9.13;;;5.80;99.90;;;;;;5090067;28;20149;-70
2023/03/06 17:22:40;;;;;;;20.90;9.85;;;5.80;99.90;;;;;;5086908;28;20052;-71
2023/03/06 17:25:07;;;;;;;17.55;9.82;;;5.80;99.90;;;;;;5087949;28;20020;-70
2023/03/06 17:27:34;;;;;;;17.25;10.02;;;5.80;99.90;;;;;;5087929;28;20024;-68
2023/03/06 17:30:00;;;;;;;21.80;10.32;;;5.80;99.90;;;;;;5087087;28;20016;-72
2023/03/06 17:32:26;;;;;;;19.23;10.05;;;5.70;99.90;;;;;;5087045;28;20032;-67
2023/03/06 17:34:52;;;;;;;20.17;9.80;;;5.60;99.90;;;;;;5088282;28;20021;-67
2023/03/06 17:37:19;;;;;;;19.80;10.07;;;5.60;99.90;;;;;;5098038;28;20099;-72
2023/03/06 17:39:44;;;;;;;21.15;11.20;;;5.50;99.90;;;;;;5108048;28;20024;-65
2023/03/06 17:42:10;;;;;;;24.15;11.95;;;5.50;99.90;;;;;;5098105;28;20024;-68
2023/03/06 17:44:36;;;;;;;23.83;11.32;;;5.40;99.90;;;;;;5088160;28;20483;-66
2023/03/06 17:47:02;;;;;;;22.63;12.10;;;5.50;99.90;;;;;;5087634;28;20107;-72
2023/03/06 17:49:28;;;;;;;21.70;12.18;;;5.40;99.90;;;;;;5087658;28;20187;-66
2023/03/06 17:51:56;;;;;;;25.65;12.50;;;5.40;99.90;;;;;;5086651;28;20047;-75
2023/03/06 17:54:25;;;;;;;22.50;12.63;;;5.40;99.90;;;;;;5085669;28;20412;-69
2023/03/06 17:56:51;;;;;;;26.23;12.00;;;5.30;99.90;;;;;;5086924;28;20013;-66
2023/03/06 17:59:17;;;;;;;25.88;12.82;;;5.30;99.90;;;;;;5086887;28;20029;-68
2023/03/06 18:01:43;;;;;;;24.65;12.13;;;5.20;99.90;;;;;;5085945;28;20438;-66
2023/03/06 18:04:10;;;;;;;26.08;13.05;;;5.20;99.90;;;;;;5077518;28;20058;-64
2023/03/06 18:06:36;;;;;;;23.98;13.35;;;5.20;99.90;;;;;;5072113;28;20039;-75
2023/03/06 18:09:02;;;;;;;25.65;12.45;;;5.20;99.90;;;;;;5083815;28;20028;-66
2023/03/06 18:11:28;;;;;;;23.85;13.35;;;5.20;99.90;;;;;;5088813;28;20045;-66
2023/03/06 18:13:54;;;;;;;28.10;14.18;;;5.20;99.90;;;;;;5072138;28;20418;-67
2023/03/06 18:16:22;;;;;;;29.33;14.38;;;5.20;99.90;;;;;;5073664;28;20017;-66
2023/03/06 18:18:51;;;;;;;28.48;13.75;;;5.20;99.90;;;;;;5074081;28;20022;-68
2023/03/06 18:21:17;;;;;;;29.73;14.70;;;5.10;99.90;;;;;;5074481;28;20025;-67
2023/03/06 18:23:42;;;;;;;27.98;14.57;;;5.10;99.90;;;;;;5073699;28;20353;-67
2023/03/06 18:26:17;;;;;;;26.42;13.43;;;5.10;99.90;;;;;;5074274;28;20359;-66
2023/03/06 18:28:45;;;;;;;26.17;12.50;;;5.20;99.90;;;;;;5073260;28;20009;-67
2023/03/06 18:31:25;;;;;;;25.58;13.88;;;5.20;99.90;;;;;;5073833;28;20103;-67
2023/03/06 18:33:53;;;;;;;26.63;13.25;;;5.20;99.90;;;;;;5076243;28;20104;-67
2023/03/06 18:36:20;;;;;;;29.00;14.82;;;5.20;99.90;;;;;;5090255;28;20111;-67
2023/03/06 18:38:46;;;;;;;26.90;14.60;;;5.20;99.90;;;;;;5082193;28;20025;-68
2023/03/06 18:41:12;;;;;;;32.33;16.15;;;5.10;99.90;;;;;;5063229;28;20029;-67
2023/03/06 18:43:38;;;;;;;30.52;15.55;;;5.10;99.90;;;;;;5093171;28;20080;-67
2023/03/06 18:46:05;;;;;;;32.55;15.70;;;5.10;99.90;;;;;;5084927;28;20021;-67
2023/03/06 18:48:31;;;;;;;29.23;15.63;;;5.00;99.90;;;;;;5073188;28;20032;-69
2023/03/06 18:51:06;;;;;;;30.30;15.10;;;5.00;99.90;;;;;;5072996;28;20025;-68
2023/03/06 18:53:31;;;;;;;32.35;16.38;;;5.00;99.90;;;;;;5064644;28;20075;-69
2023/03/06 18:55:57;;;;;;;30.98;15.50;;;5.00;99.90;;;;;;5001328;28;20387;-69
2023/03/06 18:58:23;;;;;;;31.58;15.27;;;4.90;99.90;;;;;;5066208;28;20559;-69
2023/03/06 19:00:49;;;;;;;34.22;15.75;;;4.90;99.90;;;;;;5069767;28;20496;-69
2023/03/06 19:03:15;;;;;;;31.67;15.82;;;4.90;99.90;;;;;;5070214;28;20024;-71
2023/03/06 19:05:43;;;;;;;32.80;16.92;;;4.90;99.90;;;;;;5069197;28;20016;-70
2023/03/06 19:08:09;;;;;;;30.67;15.23;;;4.90;99.90;;;;;;5070748;28;20025;-71
2023/03/06 19:10:42;;;;;;;36.17;17.40;;;4.90;99.90;;;;;;5068491;28;20131;-70
2023/03/06 19:13:09;;;;;;;30.65;16.23;;;4.90;99.90;;;;;;5057575;28;20033;-68
2023/03/06 19:15:44;;;;;;;33.90;16.23;;;4.90;99.90;;;;;;4976324;28;20035;-70
2023/03/06 19:18:12;;;;;;;36.95;17.85;;;4.90;99.90;;;;;;4967770;28;20494;-72
2023/03/06 19:20:38;;;;;;;35.63;16.67;;;4.80;99.90;;;;;;4972405;28;20479;-72
2023/03/06 19:23:04;;;;;;;33.15;16.50;;;4.80;99.90;;;;;;5004091;28;20048;-69
2023/03/06 19:25:29;;;;;;;37.03;18.25;;;4.80;99.90;;;;;;5001478;28;20401;-68
2023/03/06 19:27:55;;;;;;;37.03;16.70;;;4.80;99.90;;;;;;4987202;28;20032;-70
2023/03/06 19:30:24;;;;;;;33.65;17.92;;;4.80;99.90;;;;;;4987427;28;20068;-69
2023/03/06 19:32:51;;;;;;;38.42;17.75;;;4.80;99.90;;;;;;4987228;28;20106;-67
2023/03/06 19:35:17;;;;;;;40.35;17.35;;;4.80;99.90;;;;;;5032549;28;20017;-67
2023/03/06 19:37:43;;;;;;;36.15;16.85;;;4.80;99.90;;;;;;5069274;28;20822;-67
2023/03/06 19:40:10;;;;;;;35.22;16.27;;;4.80;99.90;;;;;;5070043;28;20021;-67
2023/03/06 19:42:35;;;;;;;34.63;15.50;;;4.80;99.90;;;;;;5069469;28;20131;-67
2023/03/06 19:45:01;;;;;;;41.13;18.58;;;4.90;99.90;;;;;;5068029;28;20100;-67
2023/03/06 19:47:26;;;;;;;41.75;19.80;;;4.90;99.90;;;;;;5068720;28;20477;-68
2023/03/06 19:49:52;;;;;;;37.85;17.95;;;4.90;99.90;;;;;;5018061;28;20025;-70
2023/03/06 19:52:18;;;;;;;35.17;17.83;;;4.80;99.90;;;;;;5040038;28;20052;-70
2023/03/06 19:54:45;;;;;;;41.80;18.25;;;4.80;99.90;;;;;;5088269;28;20032;-69
2023/03/06 19:57:11;;;;;;;35.03;16.92;;;4.80;99.90;;;;;;5090323;28;20113;-71
2023/03/06 19:59:37;;;;;;;39.75;17.00;;;4.80;99.90;;;;;;5077951;28;20518;-69
2023/03/06 20:02:03;;;;;;;34.20;16.88;;;4.80;99.90;;;;;;5069827;28;20021;-70
2023/03/06 20:04:33;;;;;;;35.22;16.02;;;4.70;99.90;;;;;;5067926;28;20017;-69
2023/03/06 20:06:59;;;;;;;31.70;15.88;;;4.70;99.90;;;;;;5069972;28;20063;-70
2023/03/06 20:09:25;;;;;;;27.95;14.63;;;4.70;99.90;;;;;;5069180;28;20108;-68
2023/03/06 20:11:51;;;;;;;34.38;15.00;;;4.70;99.90;;;;;;5069760;28;20044;-71
2023/03/06 20:14:17;;;;;;;31.35;13.57;;;4.70;99.90;;;;;;5069239;28;20025;-70
2023/03/06 20:16:43;;;;;;;30.58;14.02;;;4.70;99.90;;;;;;5069568;28;20035;-71
2023/03/06 20:19:10;;;;;;;27.95;13.02;;;4.70;99.90;;;;;;5069191;28;20028;-71
2023/03/06 20:21:37;;;;;;;30.08;13.13;;;4.60;99.90;;;;;;5085966;28;20028;-70
2023/03/06 20:24:04;;;;;;;27.42;12.85;;;4.60;99.90;;;;;;5087778;28;20025;-70
2023/03/06 20:26:30;;;;;;;28.45;12.93;;;4.60;99.90;;;;;;5088936;28;20648;-71
2023/03/06 20:28:56;;;;;;;27.48;13.57;;;4.60;99.90;;;;;;5087705;28;20131;-70
2023/03/06 20:31:24;;;;;;;25.55;13.20;;;4.50;99.90;;;;;;5087281;28;20400;-69
